Leo, Wyoming
Current Conditions -  °F | °C
As of 1:35 AM on Monday 26 Jan 2015 (Local Time) from KEHY Reporting Station
Clear Clear  
Wind Chill: 32°   Ceiling: Unl
Heat Index: 41°   Visibility: 10mi
Dew Point: 25°   Wind: 18mph
Humidity: 53%   Direction: 260°W
Pressure: 30.29"   Gusts: 22mph
Location:  42.0236°N, 106.54°W
Report Text: KEHY 260835Z AUTO 26016G19KT 10SM CLR 05/M04 A3029 RMK AO2
Loading
Personal Weather Stations






























Interactive Weather Map New forecast layout! Learn more

10-Day Weather Forecast

Advertisements
Track Severe Weather on mobile